createdAt,value
2022-12-28T00:01:13.874Z,9.64
2022-12-28T00:03:42.793Z,9.68
2022-12-28T00:06:10.676Z,9.73
2022-12-28T00:08:38.315Z,9.75
2022-12-28T00:11:12.167Z,9.79
2022-12-28T00:13:46.449Z,9.82
2022-12-28T00:16:16.896Z,9.84
2022-12-28T00:18:45.940Z,9.90
2022-12-28T00:21:13.549Z,9.88
2022-12-28T00:23:41.240Z,9.85
2022-12-28T00:26:08.952Z,9.70
2022-12-28T00:28:36.695Z,9.86
2022-12-28T00:31:04.332Z,9.85
2022-12-28T00:33:32.075Z,9.81
2022-12-28T00:36:01.972Z,9.89
2022-12-28T00:38:31.477Z,9.92
2022-12-28T00:40:59.113Z,9.96
2022-12-28T00:43:26.896Z,9.92
2022-12-28T00:45:54.598Z,9.97
2022-12-28T00:48:22.253Z,9.85
2022-12-28T00:50:49.875Z,9.94
2022-12-28T00:53:19.082Z,9.96
2022-12-28T00:55:46.656Z,9.98
2022-12-28T00:58:15.045Z,9.89
2022-12-28T01:00:42.658Z,9.94
2022-12-28T01:03:10.535Z,9.97
2022-12-28T01:05:39.690Z,9.89
2022-12-28T01:08:07.373Z,9.88
2022-12-28T01:10:36.281Z,9.83
2022-12-28T01:13:03.867Z,9.86
2022-12-28T01:15:31.443Z,9.89
2022-12-28T01:17:59.046Z,9.88
2022-12-28T01:20:26.675Z,9.83
2022-12-28T01:22:54.236Z,9.86
2022-12-28T01:25:21.956Z,9.84
2022-12-28T01:27:50.852Z,9.78
2022-12-28T01:30:18.805Z,9.74
2022-12-28T01:32:46.365Z,9.74
2022-12-28T01:35:14.073Z,9.63
2022-12-28T01:37:41.669Z,9.64
2022-12-28T01:40:10.885Z,9.68
2022-12-28T01:42:39.708Z,9.64
2022-12-28T01:45:18.606Z,9.66
2022-12-28T01:47:46.361Z,9.64
2022-12-28T01:50:15.027Z,9.67
2022-12-28T01:52:44.593Z,9.67
2022-12-28T01:55:13.814Z,9.70
2022-12-28T01:57:44.541Z,9.65
2022-12-28T02:00:13.560Z,9.77
2022-12-28T02:02:44.489Z,9.73
2022-12-28T02:05:12.322Z,9.81
2022-12-28T02:07:44.436Z,9.83
2022-12-28T02:10:40.703Z,9.87
2022-12-28T02:13:00.468Z,9.96
2022-12-28T02:15:28.361Z,9.97
2022-12-28T02:17:57.424Z,9.99
2022-12-28T02:20:25.873Z,9.75
2022-12-28T02:23:37.996Z,10.03
2022-12-28T02:26:35.472Z,10.07
2022-12-28T02:29:34.354Z,10.12
2022-12-28T02:32:07.470Z,10.07
2022-12-28T02:34:38.150Z,10.09
2022-12-28T02:37:10.903Z,10.17
2022-12-28T02:39:39.924Z,10.21
2022-12-28T02:42:09.643Z,10.16
2022-12-28T02:44:56.216Z,10.25
2022-12-28T02:47:41.762Z,10.35
2022-12-28T02:50:10.961Z,10.14
2022-12-28T02:53:00.258Z,10.35
2022-12-28T02:55:53.428Z,10.40
2022-12-28T02:58:48.517Z,10.39
2022-12-28T03:01:21.053Z,10.29
2022-12-28T03:03:55.684Z,10.37
2022-12-28T03:06:42.227Z,10.30
2022-12-28T03:09:14.255Z,10.46
2022-12-28T03:12:09.802Z,10.45
2022-12-28T03:14:41.175Z,10.40
2022-12-28T03:17:28.433Z,10.42
2022-12-28T03:20:21.913Z,10.50
2022-12-28T03:23:07.033Z,10.44
2022-12-28T03:25:57.669Z,10.42
2022-12-28T03:28:43.259Z,10.41
2022-12-28T03:31:12.972Z,10.39
2022-12-28T03:36:11.674Z,10.36
2022-12-28T03:38:48.461Z,9.73
2022-12-28T03:41:17.587Z,10.42
2022-12-28T03:43:46.549Z,10.37
2022-12-28T03:46:17.453Z,10.42
2022-12-28T03:48:45.114Z,10.48
2022-12-28T03:51:14.586Z,10.53
2022-12-28T03:53:43.512Z,10.56
2022-12-28T03:56:12.367Z,10.52
2022-12-28T03:58:39.936Z,10.60
2022-12-28T04:01:07.735Z,10.64
2022-12-28T04:03:35.982Z,10.74
2022-12-28T04:06:03.920Z,10.73
2022-12-28T04:08:33.153Z,10.76
2022-12-28T04:11:01.442Z,10.65
2022-12-28T04:13:30.516Z,10.82
2022-12-28T04:15:59.881Z,10.87
2022-12-28T04:18:27.455Z,10.89
2022-12-28T04:20:56.211Z,10.94
2022-12-28T04:23:23.772Z,10.95
2022-12-28T04:26:02.721Z,11.03
2022-12-28T04:28:30.398Z,11.08
2022-12-28T04:30:58.242Z,11.12
2022-12-28T04:33:25.840Z,11.11
2022-12-28T04:35:53.451Z,10.88
2022-12-28T04:38:21.381Z,11.10
2022-12-28T04:40:49.101Z,11.03
2022-12-28T04:43:18.137Z,11.01
2022-12-28T04:45:45.711Z,10.96
2022-12-28T04:48:13.371Z,10.96
2022-12-28T04:50:41.025Z,10.98
2022-12-28T04:53:08.682Z,11.01
2022-12-28T04:55:36.308Z,10.97
2022-12-28T04:58:04.553Z,11.01
2022-12-28T05:00:34.110Z,10.98
2022-12-28T05:03:03.427Z,10.91
2022-12-28T05:05:32.662Z,10.94
2022-12-28T05:08:01.142Z,10.65
2022-12-28T05:10:28.803Z,10.52
2022-12-28T05:12:56.529Z,10.92
2022-12-28T05:15:24.162Z,10.97
2022-12-28T05:17:53.324Z,10.87
2022-12-28T05:20:20.961Z,10.87
2022-12-28T05:22:49.003Z,10.96
2022-12-28T05:25:16.811Z,10.95
2022-12-28T05:27:44.464Z,10.96
2022-12-28T05:30:12.725Z,11.01
2022-12-28T05:32:40.373Z,11.06
2022-12-28T05:35:10.768Z,11.01
2022-12-28T05:37:38.311Z,11.07
2022-12-28T05:40:07.214Z,11.10
2022-12-28T05:42:35.792Z,11.10
2022-12-28T05:45:03.553Z,11.10
2022-12-28T05:47:31.104Z,11.12
2022-12-28T05:49:58.807Z,11.13
2022-12-28T05:52:28.845Z,11.18
2022-12-28T05:54:56.490Z,11.11
2022-12-28T05:57:24.069Z,11.18
2022-12-28T05:59:51.741Z,11.20
2022-12-28T06:02:24.552Z,11.19
2022-12-28T06:04:52.473Z,11.15
2022-12-28T06:07:20.616Z,11.09
2022-12-28T06:09:49.552Z,11.12
2022-12-28T06:12:17.399Z,11.11
2022-12-28T06:14:44.971Z,11.11
2022-12-28T06:17:12.556Z,11.08
2022-12-28T06:19:40.290Z,11.08
2022-12-28T06:22:07.887Z,11.18
2022-12-28T06:24:35.617Z,11.20
2022-12-28T06:27:04.645Z,11.23
2022-12-28T06:29:32.353Z,11.24
2022-12-28T06:32:01.225Z,11.24
2022-12-28T06:34:28.965Z,11.24
2022-12-28T06:36:58.051Z,11.28
2022-12-28T06:39:25.626Z,11.36
2022-12-28T06:41:53.393Z,11.38
2022-12-28T06:44:22.419Z,11.38
2022-12-28T06:46:51.120Z,11.49
2022-12-28T06:49:18.746Z,11.51
2022-12-28T06:51:46.643Z,11.59
2022-12-28T06:54:14.400Z,11.62
2022-12-28T06:56:42.392Z,11.63
2022-12-28T06:59:10.153Z,11.69
2022-12-28T07:01:40.198Z,11.69
2022-12-28T07:04:08.977Z,11.78
2022-12-28T07:06:37.874Z,11.80
2022-12-28T07:09:07.006Z,11.79
2022-12-28T07:11:34.876Z,11.86
2022-12-28T07:14:02.763Z,11.90
2022-12-28T07:18:59.237Z,11.88
2022-12-28T07:21:27.825Z,11.92
2022-12-28T07:23:56.016Z,11.95
2022-12-28T07:26:24.630Z,11.91
2022-12-28T07:28:53.338Z,11.97
2022-12-28T07:31:22.604Z,11.97
2022-12-28T07:33:52.579Z,11.81
2022-12-28T07:36:21.664Z,11.93
2022-12-28T07:38:49.583Z,11.89
2022-12-28T07:41:18.087Z,11.89
2022-12-28T07:43:46.011Z,11.90
2022-12-28T07:46:14.450Z,11.89
2022-12-28T07:48:42.830Z,11.89
2022-12-28T07:51:11.549Z,11.84
2022-12-28T07:53:40.936Z,11.86
2022-12-28T07:56:08.858Z,11.83
2022-12-28T07:58:36.752Z,11.83
2022-12-28T08:01:06.436Z,11.86
2022-12-28T08:03:34.551Z,11.83
2022-12-28T08:06:06.638Z,11.91
2022-12-28T08:08:35.824Z,11.94
2022-12-28T08:11:06.243Z,11.97
2022-12-28T08:13:34.399Z,11.98
2022-12-28T08:16:02.586Z,12.04
2022-12-28T08:18:30.544Z,12.03
2022-12-28T08:21:01.574Z,12.04
2022-12-28T08:23:29.830Z,12.04
2022-12-28T08:25:57.514Z,12.04
2022-12-28T08:28:26.811Z,12.07
2022-12-28T08:30:55.143Z,12.03
2022-12-28T08:33:22.911Z,12.07
2022-12-28T08:35:50.672Z,12.04
2022-12-28T08:38:18.266Z,12.05
2022-12-28T08:40:45.979Z,12.07
2022-12-28T08:43:13.620Z,12.15
2022-12-28T08:45:42.781Z,12.19
2022-12-28T08:48:10.487Z,12.22
2022-12-28T08:50:38.282Z,12.29
2022-12-28T08:53:05.886Z,12.31
2022-12-28T08:55:33.829Z,12.31
2022-12-28T08:58:01.499Z,12.28
2022-12-28T09:00:29.177Z,12.36
2022-12-28T09:03:00.365Z,12.40
2022-12-28T09:05:28.093Z,12.42
2022-12-28T09:07:59.546Z,12.42
2022-12-28T09:10:28.563Z,12.46
2022-12-28T09:12:56.204Z,12.44
2022-12-28T09:15:24.232Z,12.52
2022-12-28T09:17:52.583Z,12.54
2022-12-28T09:20:22.421Z,12.36
2022-12-28T09:22:50.690Z,12.65
2022-12-28T09:25:20.348Z,12.69
2022-12-28T09:27:53.386Z,12.73
2022-12-28T09:30:23.862Z,12.78
2022-12-28T09:38:17.311Z,12.77
2022-12-28T09:40:44.967Z,12.86
2022-12-28T09:43:12.830Z,12.86
2022-12-28T09:45:42.663Z,12.76
2022-12-28T09:48:12.885Z,12.84
2022-12-28T09:50:40.631Z,12.84
2022-12-28T09:53:19.667Z,12.66
2022-12-28T09:55:54.158Z,12.61
2022-12-28T09:58:21.823Z,12.88
2022-12-28T10:00:51.512Z,13.01
2022-12-28T10:03:20.412Z,13.01
2022-12-28T10:05:49.267Z,12.77
2022-12-28T10:08:21.388Z,13.00
2022-12-28T10:10:49.489Z,13.02
2022-12-28T10:13:52.959Z,13.01
2022-12-28T10:16:07.849Z,13.05
2022-12-28T10:18:39.602Z,12.97
2022-12-28T10:21:07.354Z,13.09
2022-12-28T10:23:50.201Z,13.12
2022-12-28T10:26:25.394Z,13.13
2022-12-28T10:28:54.406Z,13.09
2022-12-28T10:31:32.576Z,13.18
2022-12-28T10:34:00.356Z,13.15
2022-12-28T10:36:33.482Z,13.21
2022-12-28T10:39:02.475Z,13.22
2022-12-28T10:41:37.763Z,13.14
2022-12-28T10:44:38.255Z,13.21
2022-12-28T10:47:03.612Z,13.20
2022-12-28T10:49:33.233Z,13.22
2022-12-28T10:52:19.579Z,13.36
2022-12-28T10:55:07.379Z,13.34
2022-12-28T10:57:38.033Z,13.26
2022-12-28T11:00:16.453Z,13.24
2022-12-28T11:02:45.274Z,13.06
2022-12-28T11:05:19.932Z,13.18
2022-12-28T11:07:47.588Z,13.31
2022-12-28T11:10:25.266Z,13.40
2022-12-28T11:12:53.469Z,13.39
2022-12-28T11:15:21.953Z,13.17
2022-12-28T11:17:54.473Z,13.41
2022-12-28T11:20:24.645Z,13.13
2022-12-28T11:22:53.351Z,13.46
2022-12-28T11:25:21.395Z,13.11
2022-12-28T11:27:50.760Z,13.48
2022-12-28T11:30:18.975Z,13.46
2022-12-28T11:32:50.077Z,13.50
2022-12-28T11:35:18.124Z,13.55
2022-12-28T11:37:52.835Z,13.38
2022-12-28T11:40:52.388Z,13.60
2022-12-28T11:43:41.052Z,13.57
2022-12-28T11:46:10.239Z,13.39
2022-12-28T11:48:48.758Z,13.58
2022-12-28T11:51:17.282Z,13.57
2022-12-28T11:53:59.087Z,13.24
2022-12-28T11:56:27.779Z,13.55
2022-12-28T11:59:05.535Z,13.57
2022-12-28T12:01:46.986Z,13.58
2022-12-28T12:04:36.385Z,13.51
2022-12-28T12:07:32.079Z,13.61
2022-12-28T12:12:35.869Z,13.68
2022-12-28T12:20:50.182Z,13.79
2022-12-28T12:23:23.000Z,13.70
2022-12-28T12:25:54.510Z,13.54
2022-12-28T12:28:35.630Z,13.72
2022-12-28T12:31:07.749Z,13.71
2022-12-28T12:33:36.668Z,13.50
2022-12-28T12:36:10.856Z,13.67
2022-12-28T12:38:46.423Z,13.43
2022-12-28T12:41:23.316Z,13.55
2022-12-28T12:43:58.249Z,13.46
2022-12-28T12:47:06.089Z,13.62
2022-12-28T12:49:54.254Z,13.57
2022-12-28T12:52:27.626Z,13.29
2022-12-28T12:55:03.236Z,13.45
2022-12-28T12:57:34.398Z,13.58
2022-12-28T13:00:06.163Z,13.51
2022-12-28T13:02:53.361Z,13.54
2022-12-28T13:05:23.332Z,13.50
2022-12-28T13:07:53.024Z,13.64
2022-12-28T13:10:30.965Z,13.44
2022-12-28T13:12:59.933Z,13.56
2022-12-28T13:15:28.096Z,13.59
2022-12-28T13:18:26.250Z,13.38
2022-12-28T13:20:57.398Z,13.46
2022-12-28T13:23:26.356Z,13.03
2022-12-28T13:25:55.649Z,13.39
2022-12-28T13:28:24.766Z,13.39
2022-12-28T13:31:03.080Z,13.22
2022-12-28T13:33:31.211Z,13.31
2022-12-28T13:36:19.111Z,13.39
2022-12-28T13:38:47.999Z,13.29
2022-12-28T13:41:21.216Z,13.34
2022-12-28T13:44:14.406Z,13.34
2022-12-28T13:46:43.002Z,13.30
2022-12-28T13:49:10.989Z,13.34
2022-12-28T13:51:40.104Z,13.37
2022-12-28T13:54:08.007Z,13.38
2022-12-28T13:56:36.236Z,12.95
2022-12-28T13:59:05.158Z,13.09
2022-12-28T14:01:35.999Z,13.23
2022-12-28T14:04:42.327Z,13.13
2022-12-28T14:06:54.529Z,13.39
2022-12-28T14:09:22.268Z,13.28
2022-12-28T14:11:49.930Z,13.16
2022-12-28T14:14:19.351Z,13.31
2022-12-28T14:16:47.018Z,13.28
2022-12-28T14:19:14.624Z,13.31
2022-12-28T14:21:44.068Z,13.41
2022-12-28T14:24:14.949Z,13.38
2022-12-28T14:26:49.789Z,13.42
2022-12-28T14:29:20.709Z,13.39
2022-12-28T14:31:48.377Z,13.44
2022-12-28T14:34:24.061Z,13.40
2022-12-28T14:36:52.877Z,13.42
2022-12-28T14:39:27.605Z,13.45
2022-12-28T14:41:55.750Z,13.31
2022-12-28T14:44:28.048Z,13.49
2022-12-28T14:46:55.950Z,13.51
2022-12-28T14:49:42.603Z,13.21
2022-12-28T14:52:36.843Z,13.54
2022-12-28T14:55:23.460Z,13.52
2022-12-28T14:57:51.714Z,13.50
2022-12-28T15:00:23.755Z,13.51
2022-12-28T15:02:51.892Z,13.55
2022-12-28T15:05:36.517Z,13.58
2022-12-28T15:08:06.013Z,13.49
2022-12-28T15:10:37.821Z,13.55
2022-12-28T15:13:05.753Z,13.56
2022-12-28T15:15:34.466Z,13.46
2022-12-28T15:18:02.416Z,13.36
2022-12-28T15:20:30.210Z,13.56
2022-12-28T15:23:01.281Z,13.54
2022-12-28T15:25:29.206Z,13.61
2022-12-28T15:27:58.590Z,13.59
2022-12-28T15:30:29.159Z,13.48
2022-12-28T15:32:59.335Z,13.36
2022-12-28T15:35:27.746Z,13.43
2022-12-28T15:37:55.650Z,13.47
2022-12-28T15:40:23.514Z,13.61
2022-12-28T15:42:53.395Z,13.58
2022-12-28T15:45:22.641Z,13.54
2022-12-28T15:47:54.386Z,13.57
2022-12-28T15:50:22.923Z,13.56
2022-12-28T15:52:51.092Z,13.54
2022-12-28T15:55:19.179Z,13.59
2022-12-28T15:57:47.075Z,13.56
2022-12-28T16:00:18.962Z,13.52
2022-12-28T16:02:48.664Z,13.57
2022-12-28T16:05:16.772Z,13.59
2022-12-28T16:07:44.956Z,13.56
2022-12-28T16:10:13.085Z,13.60
2022-12-28T16:12:40.938Z,13.39
2022-12-28T16:15:10.418Z,13.56
2022-12-28T16:17:48.621Z,13.56
2022-12-28T16:20:20.715Z,13.26
2022-12-28T16:22:48.632Z,13.60
2022-12-28T16:25:16.829Z,13.59
2022-12-28T16:27:44.998Z,13.56
2022-12-28T16:30:15.553Z,13.56
2022-12-28T16:32:43.524Z,13.63
2022-12-28T16:35:12.541Z,13.57
2022-12-28T16:37:42.063Z,13.62
2022-12-28T16:40:12.335Z,13.64
2022-12-28T16:42:45.653Z,13.47
2022-12-28T16:45:14.053Z,13.56
2022-12-28T16:47:45.173Z,13.65
2022-12-28T16:50:13.360Z,13.43
2022-12-28T16:52:42.701Z,13.75
2022-12-28T16:55:11.047Z,13.65
2022-12-28T16:57:38.894Z,13.78
2022-12-28T17:00:08.640Z,13.80
2022-12-28T17:02:38.702Z,13.81
2022-12-28T17:05:07.893Z,13.78
2022-12-28T17:07:35.958Z,13.80
2022-12-28T17:10:05.841Z,13.68
2022-12-28T17:12:33.973Z,13.66
2022-12-28T17:15:05.217Z,13.80
2022-12-28T17:17:33.558Z,13.73
2022-12-28T17:20:01.702Z,13.67
2022-12-28T17:22:31.009Z,13.44
2022-12-28T17:24:58.957Z,13.47
2022-12-28T17:27:28.061Z,13.39
2022-12-28T17:29:55.923Z,13.29
2022-12-28T17:32:23.892Z,12.78
2022-12-28T17:34:52.898Z,13.02
2022-12-28T17:37:21.086Z,13.20
2022-12-28T17:39:48.991Z,13.12
2022-12-28T17:42:16.916Z,12.79
2022-12-28T17:44:48.654Z,13.01
2022-12-28T17:47:16.747Z,12.98
2022-12-28T17:49:44.621Z,12.98
2022-12-28T17:52:17.223Z,13.00
2022-12-28T17:54:45.126Z,12.96
2022-12-28T17:57:12.937Z,12.94
2022-12-28T17:59:40.864Z,12.94
2022-12-28T18:02:12.793Z,12.80
2022-12-28T18:04:41.447Z,12.77
2022-12-28T18:07:09.559Z,12.64
2022-12-28T18:09:37.470Z,12.78
2022-12-28T18:12:08.465Z,12.83
2022-12-28T18:14:36.408Z,12.83
2022-12-28T18:17:04.954Z,12.78
2022-12-28T18:19:34.946Z,12.57
2022-12-28T18:22:03.075Z,12.69
2022-12-28T18:24:30.846Z,12.42
2022-12-28T18:26:58.852Z,12.63
2022-12-28T18:29:26.844Z,12.55
2022-12-28T18:31:54.852Z,12.53
2022-12-28T18:34:23.004Z,12.50
2022-12-28T18:36:52.798Z,12.49
2022-12-28T18:39:21.337Z,12.44
2022-12-28T18:41:49.428Z,12.46
2022-12-28T18:44:17.468Z,12.46
2022-12-28T18:46:45.944Z,12.37
2022-12-28T18:49:14.986Z,12.45
2022-12-28T18:51:43.088Z,12.45
2022-12-28T18:54:13.786Z,12.43
2022-12-28T18:56:41.755Z,12.25
2022-12-28T18:59:10.173Z,12.49
2022-12-28T19:02:05.971Z,12.47
2022-12-28T19:04:29.436Z,12.42
2022-12-28T19:06:57.754Z,12.46
2022-12-28T19:09:27.395Z,12.50
2022-12-28T19:11:55.697Z,12.48
2022-12-28T19:14:23.974Z,12.40
2022-12-28T19:16:51.916Z,12.39
2022-12-28T19:19:21.090Z,12.25
2022-12-28T19:21:52.342Z,12.28
2022-12-28T19:24:24.209Z,12.07
2022-12-28T19:26:54.376Z,12.32
2022-12-28T19:29:22.233Z,12.28
2022-12-28T19:31:52.040Z,12.25
2022-12-28T19:34:20.811Z,12.28
2022-12-28T19:36:48.963Z,12.28
2022-12-28T19:39:16.909Z,11.93
2022-12-28T19:41:45.087Z,12.18
2022-12-28T19:44:15.477Z,12.18
2022-12-28T19:46:43.967Z,12.20
2022-12-28T19:49:12.228Z,12.13
2022-12-28T19:51:40.170Z,12.17
2022-12-28T19:54:08.367Z,11.78
2022-12-28T19:56:36.188Z,12.16
2022-12-28T19:59:06.915Z,12.15
2022-12-28T20:01:39.018Z,11.80
2022-12-28T20:04:13.510Z,12.15
2022-12-28T20:06:43.052Z,12.16
2022-12-28T20:09:11.282Z,12.18
2022-12-28T20:11:40.611Z,12.10
2022-12-28T20:14:09.051Z,12.14
2022-12-28T20:16:38.821Z,12.12
2022-12-28T20:19:08.666Z,12.13
2022-12-28T20:21:36.851Z,11.73
2022-12-28T20:24:05.247Z,12.13
2022-12-28T20:26:33.471Z,11.85
2022-12-28T20:29:01.924Z,11.92
2022-12-28T20:31:31.034Z,12.18
2022-12-28T20:34:00.584Z,12.21
2022-12-28T20:36:30.986Z,12.19
2022-12-28T20:38:59.046Z,12.04
2022-12-28T20:41:44.395Z,11.96
2022-12-28T20:44:13.147Z,12.25
2022-12-28T20:46:43.404Z,12.20
2022-12-28T20:49:12.875Z,11.90
2022-12-28T20:51:42.390Z,12.16
2022-12-28T20:54:10.918Z,12.39
2022-12-28T20:56:41.712Z,12.42
2022-12-28T20:59:09.720Z,12.40
2022-12-28T21:01:37.980Z,12.13
2022-12-28T21:04:06.475Z,12.39
2022-12-28T21:06:35.958Z,12.49
2022-12-28T21:09:05.011Z,12.54
2022-12-28T21:11:33.289Z,12.28
2022-12-28T21:14:01.309Z,12.64
2022-12-28T21:16:29.105Z,12.66
2022-12-28T21:18:59.235Z,12.49
2022-12-28T21:21:27.925Z,12.75
2022-12-28T21:23:57.245Z,12.78
2022-12-28T21:26:25.706Z,12.60
2022-12-28T21:28:53.620Z,12.94
2022-12-28T21:31:21.758Z,13.00
2022-12-28T21:33:49.602Z,12.76
2022-12-28T21:36:18.933Z,12.82
2022-12-28T21:38:47.887Z,12.73
2022-12-28T21:41:37.986Z,13.04
2022-12-28T21:44:06.324Z,12.90
2022-12-28T21:46:35.146Z,13.05
2022-12-28T21:49:04.146Z,13.06
2022-12-28T21:51:32.218Z,12.82
2022-12-28T21:54:02.723Z,12.95
2022-12-28T21:56:32.312Z,12.95
2022-12-28T21:59:01.554Z,13.04
2022-12-28T22:01:47.106Z,13.04
2022-12-28T22:04:34.073Z,12.98
2022-12-28T22:07:02.088Z,12.88
2022-12-28T22:09:47.005Z,13.04
2022-12-28T22:12:37.401Z,13.13
2022-12-28T22:17:33.061Z,13.23
2022-12-28T22:20:00.667Z,13.12
2022-12-28T22:22:28.261Z,13.24
2022-12-28T22:24:56.057Z,13.22
2022-12-28T22:27:24.988Z,13.24
2022-12-28T22:29:52.768Z,12.98
2022-12-28T22:32:20.385Z,13.08
2022-12-28T22:34:48.131Z,13.04
2022-12-28T22:37:15.751Z,13.03
2022-12-28T22:39:43.534Z,13.03
2022-12-28T22:42:11.229Z,13.14
2022-12-28T22:44:40.274Z,13.10
2022-12-28T22:47:07.862Z,13.13
2022-12-28T22:49:35.522Z,12.86
2022-12-28T22:52:03.166Z,13.15
2022-12-28T22:54:30.837Z,13.04
2022-12-28T22:56:58.407Z,13.16
2022-12-28T22:59:26.154Z,13.08
2022-12-28T23:01:56.416Z,12.98
2022-12-28T23:04:24.098Z,13.16
2022-12-28T23:06:51.977Z,13.17
2022-12-28T23:09:19.619Z,13.12
2022-12-28T23:11:47.797Z,13.11
2022-12-28T23:14:37.223Z,13.08
2022-12-28T23:17:10.103Z,13.15
2022-12-28T23:19:55.249Z,13.19
2022-12-28T23:22:44.439Z,13.15
2022-12-28T23:25:30.933Z,13.06
2022-12-28T23:27:59.599Z,12.91
2022-12-28T23:30:27.352Z,12.90
2022-12-28T23:32:56.807Z,13.04
2022-12-28T23:35:25.177Z,13.19
2022-12-28T23:37:52.896Z,13.14
2022-12-28T23:40:21.192Z,13.24
2022-12-28T23:42:48.960Z,13.24
2022-12-28T23:45:17.829Z,13.24
2022-12-28T23:47:45.593Z,13.26
2022-12-28T23:50:15.178Z,13.03
2022-12-28T23:52:44.117Z,13.32
2022-12-28T23:55:11.884Z,13.30
2022-12-28T23:57:39.778Z,13.39
